Time;durP1;ratioP1;P1;durP2;ratioP2;P2;SDS_P1;SDS_P2;PMS_P1;PMS_P2;Temp;Humidity;BMP_temperature;BMP_pressure;BME280_temperature;BME280_humidity;BME280_pressure;Samples;Min_cycle;Max_cycle;Signal;HPM_P1;HPM_P2
2023/03/10 00:02:00;;;;;;;17.30;8.45;;;;;;;4.24;100.00;98664.63;5070345;28;20036;-66
2023/03/10 00:04:25;;;;;;;18.23;8.98;;;;;;;4.18;100.00;98661.78;5070272;28;20081;-66
2023/03/10 00:06:50;;;;;;;15.15;7.25;;;;;;;4.16;100.00;98655.91;5070242;28;20044;-66
2023/03/10 00:09:16;;;;;;;17.60;7.60;;;;;;;4.08;100.00;98640.31;5070350;28;20031;-66
2023/03/10 00:11:41;;;;;;;16.13;6.78;;;;;;;4.07;100.00;98648.47;5068778;28;20064;-66
2023/03/10 00:14:06;;;;;;;15.60;7.35;;;;;;;4.06;100.00;98646.81;5070107;28;20038;-66
2023/03/10 00:16:32;;;;;;;17.42;8.40;;;;;;;4.03;100.00;98653.31;5070022;28;20480;-66
2023/03/10 00:18:58;;;;;;;14.65;6.95;;;;;;;4.02;100.00;98653.56;5070175;28;20048;-66
2023/03/10 00:21:27;;;;;;;14.00;7.32;;;;;;;4.05;100.00;98656.56;5068643;28;20039;-66
2023/03/10 00:23:53;;;;;;;16.15;7.45;;;;;;;4.07;100.00;98648.47;5070125;28;20021;-66
2023/03/10 00:26:19;;;;;;;15.15;6.18;;;;;;;4.10;100.00;98661.22;5089421;28;20114;-66
2023/03/10 00:28:45;;;;;;;15.38;7.57;;;;;;;4.12;100.00;98660.00;5089383;28;20024;-66
2023/03/10 00:31:15;;;;;;;20.02;9.40;;;;;;;4.14;100.00;98652.69;5089101;28;20111;-66
2023/03/10 00:33:40;;;;;;;17.17;7.72;;;;;;;4.13;100.00;98647.63;5089279;28;20024;-66
2023/03/10 00:36:12;;;;;;;14.95;7.20;;;;;;;4.17;100.00;98657.56;5089392;28;20451;-66
2023/03/10 00:38:39;;;;;;;16.52;7.35;;;;;;;4.20;100.00;98652.88;5069887;28;20511;-66
2023/03/10 00:41:07;;;;;;;17.17;8.30;;;;;;;4.21;100.00;98649.22;5069713;28;20035;-66
2023/03/10 00:43:34;;;;;;;15.77;7.22;;;;;;;4.21;100.00;98649.22;5089221;28;20544;-66
2023/03/10 00:45:59;;;;;;;15.40;7.07;;;;;;;4.20;100.00;98648.41;5088904;28;20024;-66
2023/03/10 00:48:25;;;;;;;15.07;6.43;;;;;;;4.21;100.00;98647.38;5088744;28;20077;-66
2023/03/10 00:50:50;;;;;;;14.05;6.75;;;;;;;4.20;100.00;98651.03;5088992;28;20089;-66
2023/03/10 00:53:16;;;;;;;14.10;7.05;;;;;;;4.23;100.00;98652.47;5089339;28;20036;-66
2023/03/10 00:55:42;;;;;;;19.42;8.52;;;;;;;4.24;100.00;98656.69;5088962;28;20036;-66
2023/03/10 00:58:07;;;;;;;16.35;6.68;;;;;;;4.25;100.00;98653.06;5088686;28;20036;-66
2023/03/10 01:00:33;;;;;;;17.45;8.38;;;;;;;4.26;100.00;98660.75;5089054;28;20053;-66
2023/03/10 01:02:58;;;;;;;20.35;9.02;;;;;;;4.30;100.00;98669.06;5088937;28;20471;-66
2023/03/10 01:05:24;;;;;;;14.65;6.35;;;;;;;4.33;100.00;98668.66;5089145;28;20052;-66
2023/03/10 01:07:49;;;;;;;16.02;6.97;;;;;;;4.33;100.00;98663.38;5088943;28;20035;-66
2023/03/10 01:10:15;;;;;;;16.30;7.53;;;;;;;4.35;100.00;98666.63;5088822;28;20036;-66
2023/03/10 01:12:40;;;;;;;16.73;6.75;;;;;;;4.37;100.00;98661.91;5088749;28;20036;-66
2023/03/10 01:15:07;;;;;;;18.27;8.25;;;;;;;4.38;100.00;98653.81;5069426;28;20122;-66
2023/03/10 01:17:32;;;;;;;16.58;7.63;;;;;;;4.39;100.00;98655.41;5069772;28;20059;-65
2023/03/10 01:19:57;;;;;;;17.63;7.88;;;;;;;4.41;100.00;98654.41;5069410;28;20021;-66
2023/03/10 01:22:23;;;;;;;20.15;10.32;;;;;;;4.41;100.00;98654.41;5069509;28;20111;-66
2023/03/10 01:24:48;;;;;;;19.85;8.52;;;;;;;4.38;100.00;98634.53;5069488;28;20029;-66
2023/03/10 01:27:14;;;;;;;17.58;8.00;;;;;;;4.44;100.00;98635.50;5068012;28;20032;-66
2023/03/10 01:29:39;;;;;;;19.20;9.68;;;;;;;4.44;100.00;98632.88;5069388;28;20039;-66
2023/03/10 01:32:05;;;;;;;17.83;7.72;;;;;;;4.41;100.00;98639.38;5069229;28;20414;-66
2023/03/10 01:34:31;;;;;;;20.10;9.38;;;;;;;4.39;100.00;98634.28;5069314;28;20399;-66
2023/03/10 01:36:57;;;;;;;19.15;8.60;;;;;;;4.42;100.00;98630.44;5069309;28;20131;-65
2023/03/10 01:39:22;;;;;;;18.48;7.47;;;;;;;4.41;100.00;98628.00;5069209;28;20554;-66
2023/03/10 01:41:48;;;;;;;17.20;8.77;;;;;;;4.46;100.00;98631.63;5069079;28;20036;-66
2023/03/10 01:44:19;;;;;;;17.48;7.82;;;;;;;4.50;100.00;98619.63;5069364;28;20039;-66
2023/03/10 01:46:47;;;;;;;18.95;9.07;;;;;;;4.50;100.00;98626.72;5069597;28;20117;-66
2023/03/10 01:49:18;;;;;;;18.80;8.93;;;;;;;4.49;100.00;98619.84;5069148;28;20020;-66
2023/03/10 01:51:49;;;;;;;17.63;8.45;;;;;;;4.53;100.00;98621.84;5088160;28;20032;-66
2023/03/10 01:54:20;;;;;;;16.10;8.15;;;;;;;4.56;100.00;98617.97;5088403;28;20039;-66
2023/03/10 01:56:46;;;;;;;18.50;9.02;;;;;;;4.59;100.00;98612.28;5088456;28;20024;-66
2023/03/10 01:59:13;;;;;;;21.73;9.32;;;;;;;4.64;100.00;98607.16;5088502;28;20560;-66
2023/03/10 02:01:38;;;;;;;20.67;9.32;;;;;;;4.71;100.00;98605.25;5090169;28;20059;-66
2023/03/10 02:04:15;;;;;;;19.73;9.00;;;;;;;4.79;100.00;98594.47;5092522;28;20020;-66
2023/03/10 02:06:41;;;;;;;19.98;9.02;;;;;;;4.91;100.00;98591.91;5091713;28;20043;-66
2023/03/10 02:09:08;;;;;;;18.92;7.30;;;;;;;5.06;100.00;98591.59;5092132;28;20031;-66
2023/03/10 02:11:34;;;;;;;18.35;7.95;;;;;;;5.22;100.00;98592.88;5072233;28;20028;-66
2023/03/10 02:14:05;;;;;;;18.58;7.78;;;;;;;5.45;100.00;98594.91;5091534;28;20054;-66
2023/03/10 02:16:30;;;;;;;17.10;6.40;;;;;;;5.68;100.00;98595.03;5091925;28;20031;-66
2023/03/10 02:18:56;;;;;;;15.32;6.60;;;;;;;5.83;100.00;98594.66;5091684;28;20026;-66
2023/03/10 02:21:30;;;;;;;13.93;5.82;;;;;;;6.04;100.00;98595.28;5091623;28;20032;-66
2023/03/10 02:23:56;;;;;;;17.33;6.20;;;;;;;6.23;100.00;98591.56;5091617;28;20031;-66
2023/03/10 02:26:43;;;;;;;14.90;5.25;;;;;;;6.33;100.00;98588.38;5091642;28;20032;-66
2023/03/10 02:29:16;;;;;;;14.77;5.97;;;;;;;6.48;100.00;98595.91;5072467;28;20034;-66
2023/03/10 02:31:42;;;;;;;18.35;6.43;;;;;;;6.49;100.00;98579.78;5072018;28;20030;-66
2023/03/10 02:34:08;;;;;;;14.82;5.63;;;;;;;6.58;100.00;98583.75;5072153;28;20523;-66
2023/03/10 02:36:33;;;;;;;17.17;6.20;;;;;;;6.67;100.00;98570.97;5091450;28;20020;-66
2023/03/10 02:38:59;;;;;;;16.02;6.22;;;;;;;6.74;100.00;98570.88;5091725;28;20036;-66
2023/03/10 02:41:34;;;;;;;15.65;6.43;;;;;;;6.79;100.00;98568.34;5091436;28;20024;-66
2023/03/10 02:44:03;;;;;;;14.05;6.03;;;;;;;6.81;100.00;98566.25;5091212;28;20042;-66
2023/03/10 02:46:29;;;;;;;17.42;6.30;;;;;;;6.83;100.00;98566.03;5071720;28;20119;-67
2023/03/10 02:48:58;;;;;;;17.65;6.97;;;;;;;6.90;100.00;98572.06;5071791;28;20175;-66
2023/03/10 02:51:28;;;;;;;14.30;5.22;;;;;;;6.88;100.00;98566.97;5070249;28;20387;-66
2023/03/10 02:53:54;;;;;;;19.02;7.22;;;;;;;6.84;100.00;98557.88;5090989;28;20064;-66
2023/03/10 02:56:19;;;;;;;12.35;4.85;;;;;;;6.79;100.00;98536.56;5090928;28;20032;-66
2023/03/10 02:58:45;;;;;;;14.05;5.07;;;;;;;6.88;100.00;98543.13;5091079;28;20107;-66
2023/03/10 03:01:10;;;;;;;13.18;5.60;;;;;;;6.92;100.00;98544.28;5090806;28;20540;-66
2023/03/10 03:03:35;;;;;;;12.23;5.40;;;;;;;6.92;100.00;98554.91;5091034;28;20043;-66
2023/03/10 03:06:01;;;;;;;12.93;5.85;;;;;;;6.96;100.00;98550.72;5090796;28;20109;-66
2023/03/10 03:08:26;;;;;;;12.35;5.32;;;;;;;6.88;100.00;98535.19;5090753;28;20454;-66
2023/03/10 03:10:52;;;;;;;14.55;5.25;;;;;;;6.98;100.00;98546.00;5090333;28;20081;-66
2023/03/10 03:13:17;;;;;;;17.52;5.32;;;;;;;6.98;100.00;98537.25;5071406;28;20490;-66
2023/03/10 03:15:42;;;;;;;14.20;5.35;;;;;;;6.95;100.00;98533.22;5071638;28;20510;-66
2023/03/10 03:18:08;;;;;;;13.23;5.30;;;;;;;6.92;100.00;98531.03;5071130;28;20032;-66
2023/03/10 03:20:36;;;;;;;13.73;4.90;;;;;;;6.92;100.00;98538.19;5071286;28;20144;-66
2023/03/10 03:23:02;;;;;;;13.63;5.38;;;;;;;6.91;100.00;98533.91;5070918;28;20032;-66
2023/03/10 03:25:29;;;;;;;16.63;7.05;;;;;;;6.94;100.00;98536.09;5071048;28;20040;-66
2023/03/10 03:27:56;;;;;;;13.77;4.85;;;;;;;6.91;100.00;98532.06;5090502;28;20047;-66
2023/03/10 03:30:25;;;;;;;14.52;5.40;;;;;;;6.87;100.00;98528.28;5090479;28;20051;-66
2023/03/10 03:32:52;;;;;;;11.57;5.13;;;;;;;6.82;100.00;98532.66;5088961;28;20394;-66
2023/03/10 03:35:26;;;;;;;18.50;5.75;;;;;;;6.80;100.00;98533.66;5090360;28;20063;-66
2023/03/10 03:37:53;;;;;;;13.48;5.55;;;;;;;6.79;100.00;98533.91;5090403;28;20423;-66
2023/03/10 03:40:19;;;;;;;11.57;5.57;;;;;;;6.82;100.00;98535.31;5090258;28;20028;-66
2023/03/10 03:42:47;;;;;;;14.00;5.15;;;;;;;6.82;100.00;98530.81;5089954;28;20027;-66
2023/03/10 03:45:14;;;;;;;13.27;6.00;;;;;;;6.84;100.00;98531.38;5090369;28;20085;-66
2023/03/10 03:47:40;;;;;;;12.00;4.05;;;;;;;6.84;100.00;98531.38;5089979;28;20497;-66
2023/03/10 03:50:07;;;;;;;13.25;5.32;;;;;;;6.84;100.00;98528.75;5090097;28;20028;-66
2023/03/10 03:52:33;;;;;;;11.50;4.35;;;;;;;6.83;100.00;98527.09;5089730;28;20043;-66
2023/03/10 03:54:59;;;;;;;14.52;5.32;;;;;;;6.76;100.00;98529.88;5089892;28;20027;-66
2023/03/10 03:57:24;;;;;;;12.30;4.55;;;;;;;6.82;100.00;98533.44;5089761;28;20063;-66
2023/03/10 03:59:50;;;;;;;12.35;5.13;;;;;;;6.82;100.00;98527.34;5089923;28;20435;-66
2023/03/10 04:02:15;;;;;;;11.35;4.63;;;;;;;6.88;100.00;98531.72;5089729;28;20036;-66
2023/03/10 04:04:41;;;;;;;14.93;5.32;;;;;;;6.94;100.00;98530.78;5089638;28;20024;-66
2023/03/10 04:07:06;;;;;;;11.20;4.32;;;;;;;6.98;100.00;98530.13;5089797;28;20062;-66
2023/03/10 04:09:32;;;;;;;10.48;3.60;;;;;;;6.97;100.00;98517.91;5089670;28;20027;-66
2023/03/10 04:11:57;;;;;;;9.50;3.40;;;;;;;7.00;100.00;98519.28;5089876;28;20511;-67
2023/03/10 04:14:23;;;;;;;7.03;3.03;;;;;;;7.00;100.00;98520.09;5089474;28;20044;-66
2023/03/10 04:16:48;;;;;;;12.55;4.03;;;;;;;7.03;100.00;98516.97;5089621;28;20020;-66
2023/03/10 04:19:13;;;;;;;9.38;3.38;;;;;;;7.09;100.00;98517.91;5089622;28;20059;-66
2023/03/10 04:21:39;;;;;;;10.52;3.85;;;;;;;7.14;100.00;98519.84;5089435;28;20024;-66
2023/03/10 04:24:05;;;;;;;11.20;4.07;;;;;;;7.14;100.00;98501.31;5088954;28;20023;-70
2023/03/10 04:26:31;;;;;;;11.02;3.33;;;;;;;7.12;100.00;98504.16;5089378;28;20028;-71
2023/03/10 04:28:57;;;;;;;7.75;4.05;;;;;;;7.18;100.00;98510.41;5089468;28;20050;-71
2023/03/10 04:31:23;;;;;;;10.23;4.28;;;;;;;7.12;100.00;98498.88;5089100;28;20036;-71
2023/03/10 04:33:49;;;;;;;9.10;3.90;;;;;;;7.21;100.00;98516.03;5089312;28;20034;-71
2023/03/10 04:36:15;;;;;;;25.55;4.28;;;;;;;7.20;100.00;98511.81;5089344;28;20052;-71
2023/03/10 04:38:40;;;;;;;12.52;4.20;;;;;;;7.22;100.00;98515.00;5069821;28;20043;-71
2023/03/10 04:41:08;;;;;;;7.78;3.17;;;;;;;7.22;100.00;98514.19;5069707;28;20036;-70
2023/03/10 04:43:34;;;;;;;6.50;3.85;;;;;;;7.23;100.00;98513.16;5069748;28;20035;-70
2023/03/10 04:45:59;;;;;;;12.82;3.75;;;;;;;7.20;100.00;98503.84;5069653;28;20029;-70
2023/03/10 04:48:24;;;;;;;8.15;3.60;;;;;;;7.15;100.00;98497.59;5069733;28;20028;-71
2023/03/10 04:50:57;;;;;;;12.48;4.22;;;;;;;7.15;100.00;98490.47;5069565;28;20037;-70
2023/03/10 04:53:23;;;;;;;11.65;3.85;;;;;;;7.12;100.00;98495.41;5069810;28;20116;-71
2023/03/10 04:55:50;;;;;;;8.88;3.38;;;;;;;7.09;100.00;98488.75;5069777;28;20550;-71
2023/03/10 04:58:19;;;;;;;10.35;4.00;;;;;;;7.06;100.00;98491.06;5088208;28;20038;-71
2023/03/10 05:00:44;;;;;;;8.77;2.75;;;;;;;7.01;100.00;98489.91;5089070;28;20024;-70
2023/03/10 05:03:10;;;;;;;9.90;3.28;;;;;;;6.97;100.00;98493.25;5088996;28;20093;-70
2023/03/10 05:05:36;;;;;;;9.13;2.97;;;;;;;6.93;100.00;98490.25;5088777;28;20056;-71
2023/03/10 05:08:02;;;;;;;9.93;2.65;;;;;;;6.86;100.00;98484.25;5088922;28;20592;-71
2023/03/10 05:10:27;;;;;;;7.65;3.10;;;;;;;6.86;100.00;98491.41;5088890;28;20065;-71
2023/03/10 05:12:53;;;;;;;9.07;3.13;;;;;;;6.83;100.00;98492.66;5088879;28;20127;-71
2023/03/10 05:15:18;;;;;;;8.48;2.50;;;;;;;6.83;100.00;98486.56;5088561;28;20044;-70
2023/03/10 05:17:44;;;;;;;8.50;3.08;;;;;;;6.88;100.00;98497.28;5088930;28;20056;-71
2023/03/10 05:20:10;;;;;;;3.70;2.25;;;;;;;6.88;100.00;98491.97;5088824;28;20479;-70
2023/03/10 05:22:37;;;;;;;6.57;3.22;;;;;;;6.87;100.00;98487.72;5088497;28;20028;-70
2023/03/10 05:25:03;;;;;;;8.98;3.13;;;;;;;6.88;100.00;98491.97;5088786;28;20028;-71
2023/03/10 05:27:31;;;;;;;11.77;4.28;;;;;;;6.83;100.00;98479.41;5088731;28;20032;-71
2023/03/10 05:29:56;;;;;;;8.32;2.75;;;;;;;6.88;100.00;98479.53;5089004;28;20032;-70
2023/03/10 05:32:22;;;;;;;8.73;3.95;;;;;;;6.91;100.00;98486.22;5088539;28;20119;-71
2023/03/10 05:34:47;;;;;;;8.48;2.45;;;;;;;6.87;100.00;98483.22;5088971;28;20039;-71
2023/03/10 05:37:12;;;;;;;10.10;2.58;;;;;;;6.88;100.00;98492.78;5092646;28;20028;-70
2023/03/10 05:39:38;;;;;;;7.95;3.15;;;;;;;6.85;100.00;98490.59;5092589;28;20517;-70
2023/03/10 05:42:03;;;;;;;12.05;2.95;;;;;;;6.83;100.00;98490.00;5092636;28;20471;-71
2023/03/10 05:44:29;;;;;;;5.93;2.58;;;;;;;6.83;100.00;98484.72;5092344;28;20032;-70
2023/03/10 05:46:54;;;;;;;7.47;2.60;;;;;;;6.82;100.00;98490.25;5092502;28;20024;-71
2023/03/10 05:49:19;;;;;;;12.40;3.05;;;;;;;6.85;100.00;98489.81;5092745;28;20035;-70
2023/03/10 05:51:45;;;;;;;15.68;3.33;;;;;;;6.89;100.00;98488.28;5092157;28;20021;-70
2023/03/10 05:54:10;;;;;;;9.00;3.47;;;;;;;6.90;100.00;98490.72;5092250;28;20064;-71
2023/03/10 05:56:36;;;;;;;11.55;3.22;;;;;;;6.94;100.00;98496.34;5092274;28;20275;-71
2023/03/10 05:59:01;;;;;;;10.98;3.75;;;;;;;6.95;100.00;98500.63;5092309;28;20383;-70
2023/03/10 06:01:27;;;;;;;12.52;2.95;;;;;;;6.90;100.00;98488.06;5092116;28;20127;-71
2023/03/10 06:03:52;;;;;;;7.95;3.03;;;;;;;6.94;100.00;98486.59;5092584;28;20491;-69
2023/03/10 06:06:17;;;;;;;9.60;3.00;;;;;;;6.94;100.00;98486.59;5091696;28;20052;-70
2023/03/10 06:08:43;;;;;;;11.50;4.55;;;;;;;7.01;100.00;98489.09;5091944;28;20412;-70
2023/03/10 06:11:08;;;;;;;9.50;3.92;;;;;;;7.01;100.00;98492.53;5092049;28;20036;-69
2023/03/10 06:13:34;;;;;;;8.38;3.13;;;;;;;7.02;100.00;98490.69;5091717;28;20028;-70
2023/03/10 06:16:04;;;;;;;7.82;3.10;;;;;;;7.08;100.00;98487.13;5091945;28;20111;-69
2023/03/10 06:18:29;;;;;;;12.45;2.70;;;;;;;7.14;100.00;98488.06;5091719;28;20036;-69
2023/03/10 06:20:56;;;;;;;10.73;3.25;;;;;;;7.17;100.00;98490.22;5080401;28;20736;-69
2023/03/10 06:23:23;;;;;;;11.35;5.35;;;;;;;7.19;100.00;98501.41;5074664;28;20032;-72
2023/03/10 06:26:06;;;;;;;12.15;3.65;;;;;;;7.21;100.00;98499.34;5075846;28;20032;-70
2023/03/10 06:28:35;;;;;;;10.93;3.30;;;;;;;7.25;100.00;98497.81;5074497;28;20050;-70
2023/03/10 06:31:03;;;;;;;11.65;3.40;;;;;;;7.26;100.00;98499.44;5074879;28;20068;-70
2023/03/10 06:33:29;;;;;;;9.95;3.20;;;;;;;7.31;100.00;98510.16;5074643;28;20105;-67
2023/03/10 06:35:54;;;;;;;11.77;4.90;;;;;;;7.38;100.00;98499.41;5074536;28;20020;-67
2023/03/10 06:38:21;;;;;;;13.63;3.53;;;;;;;7.46;100.00;98496.41;5074506;28;20020;-66
2023/03/10 06:40:46;;;;;;;13.55;3.38;;;;;;;7.48;100.00;98499.63;5074577;28;20058;-65
2023/03/10 06:43:11;;;;;;;8.55;2.67;;;;;;;7.51;100.00;98501.00;5074579;28;20068;-66
2023/03/10 06:45:42;;;;;;;12.30;2.78;;;;;;;7.43;100.00;98497.66;5074020;28;20036;-67
2023/03/10 06:48:08;;;;;;;16.93;3.37;;;;;;;7.46;100.00;98499.84;5074244;28;20033;-67
2023/03/10 06:50:34;;;;;;;12.50;3.10;;;;;;;7.47;100.00;98509.44;5074012;28;20023;-67
2023/03/10 06:52:59;;;;;;;10.35;3.40;;;;;;;7.45;100.00;98506.22;5072177;28;20028;-68
2023/03/10 06:55:25;;;;;;;19.42;4.15;;;;;;;7.47;100.00;98512.09;5071558;28;20395;-67
2023/03/10 06:57:50;;;;;;;11.45;3.42;;;;;;;7.53;100.00;98518.28;5070906;28;20064;-67
2023/03/10 07:00:17;;;;;;;8.38;2.80;;;;;;;7.59;100.00;98519.19;5070069;28;20043;-68
2023/03/10 07:02:42;;;;;;;11.13;3.63;;;;;;;7.60;100.00;98526.13;5071417;28;20036;-68
2023/03/10 07:05:11;;;;;;;14.52;4.45;;;;;;;7.60;100.00;98526.13;5071496;28;20048;-68
2023/03/10 07:07:36;;;;;;;9.60;3.28;;;;;;;7.61;100.00;98530.41;5090309;28;20483;-73
2023/03/10 07:10:02;;;;;;;14.85;4.03;;;;;;;7.62;100.00;98526.69;5090802;28;20127;-73
2023/03/10 07:12:27;;;;;;;11.50;2.95;;;;;;;7.63;100.00;98523.81;5090577;28;20131;-73
2023/03/10 07:14:53;;;;;;;9.55;3.83;;;;;;;7.63;100.00;98513.19;5090314;28;20081;-73
2023/03/10 07:17:18;;;;;;;13.13;4.13;;;;;;;7.61;100.00;98531.19;5090563;28;20039;-73
2023/03/10 07:19:43;;;;;;;7.82;3.53;;;;;;;7.61;100.00;98525.09;5075066;28;20027;-73
2023/03/10 07:22:09;;;;;;;13.13;4.28;;;;;;;7.58;100.00;98530.88;5090491;28;20475;-73
2023/03/10 07:24:35;;;;;;;14.73;4.70;;;;;;;7.57;100.00;98526.59;5081322;28;20472;-73
2023/03/10 07:27:01;;;;;;;13.68;4.88;;;;;;;7.57;100.00;98531.88;5070868;28;20036;-73
2023/03/10 07:29:26;;;;;;;14.27;4.00;;;;;;;7.58;100.00;98530.88;5081242;28;20028;-72
2023/03/10 07:31:51;;;;;;;13.27;5.45;;;;;;;7.60;100.00;98537.56;5073818;28;20032;-73
2023/03/10 07:34:17;;;;;;;14.85;4.43;;;;;;;7.62;100.00;98542.59;5074191;28;20131;-73
2023/03/10 07:36:42;;;;;;;11.75;4.00;;;;;;;7.66;100.00;98543.75;5073409;28;20550;-72
2023/03/10 07:39:08;;;;;;;20.48;5.88;;;;;;;7.70;100.00;98544.88;5073580;28;20043;-71
2023/03/10 07:41:33;;;;;;;8.93;4.55;;;;;;;7.74;100.00;98547.91;5073746;28;20020;-74
2023/03/10 07:43:58;;;;;;;13.23;3.97;;;;;;;7.83;100.00;98542.00;5073325;28;20039;-74
2023/03/10 07:46:24;;;;;;;9.60;4.05;;;;;;;8.00;100.00;98551.84;5073378;28;21401;-73
2023/03/10 07:48:51;;;;;;;16.63;5.10;;;;;;;8.12;100.00;98544.63;5073620;28;20812;-71
2023/03/10 07:51:17;;;;;;;12.55;4.82;;;;;;;8.25;100.00;98555.00;5072752;28;20115;-71
2023/03/10 07:53:43;;;;;;;21.10;5.22;;;;;;;8.39;100.00;98552.88;5074090;28;20069;-71
2023/03/10 07:56:12;;;;;;;16.02;5.18;;;;;;;8.51;100.00;98560.75;5073092;28;20048;-70
2023/03/10 07:58:38;;;;;;;23.60;7.00;;;;;;;8.59;100.00;98555.06;5073118;28;20032;-70
2023/03/10 08:01:07;;;;;;;16.45;5.30;;;;;;;8.71;100.00;98550.47;5073873;28;20040;-70
2023/03/10 08:03:35;;;;;;;16.80;5.93;;;;;;;8.74;100.00;98557.97;5072318;28;20036;-69
2023/03/10 08:06:04;;;;;;;19.45;7.25;;;;;;;8.67;100.00;98554.69;5073783;28;20066;-69
2023/03/10 08:08:29;;;;;;;19.38;5.45;;;;;;;8.59;100.00;98559.56;5073525;28;20065;-69
2023/03/10 08:11:08;;;;;;;13.57;5.40;;;;;;;8.47;100.00;98552.47;5071827;28;20032;-69
2023/03/10 08:13:34;;;;;;;17.30;6.07;;;;;;;8.28;100.00;98557.16;5073839;28;20020;-70
2023/03/10 08:16:00;;;;;;;12.55;6.18;;;;;;;8.21;100.00;98555.69;5073272;28;20023;-69
2023/03/10 08:18:26;;;;;;;16.00;6.68;;;;;;;8.13;100.00;98572.81;5072851;28;20617;-70
2023/03/10 08:20:52;;;;;;;13.60;6.30;;;;;;;8.03;100.00;98549.53;5072871;28;20059;-70
2023/03/10 08:23:17;;;;;;;16.83;5.65;;;;;;;8.13;100.00;98555.03;5072993;28;20514;-70
2023/03/10 08:25:43;;;;;;;14.80;5.32;;;;;;;8.23;100.00;98565.03;5073500;28;20111;-70
2023/03/10 08:28:08;;;;;;;13.27;6.13;;;;;;;8.38;100.00;98561.84;5073201;28;20031;-70
2023/03/10 08:30:33;;;;;;;16.05;6.10;;;;;;;8.50;100.00;98564.47;5073094;28;20048;-70
2023/03/10 08:32:59;;;;;;;20.30;6.93;;;;;;;8.61;100.00;98565.44;5072120;28;20379;-69
2023/03/10 08:35:25;;;;;;;14.98;7.35;;;;;;;8.59;100.00;98562.22;5073198;28;20032;-70
2023/03/10 08:37:51;;;;;;;16.58;7.70;;;;;;;8.57;100.00;98551.84;5072974;28;20043;-70
2023/03/10 08:40:17;;;;;;;16.55;4.93;;;;;;;8.70;100.00;98558.72;5071557;28;20064;-70
2023/03/10 08:42:43;;;;;;;14.20;4.35;;;;;;;8.79;100.00;98554.59;5073448;28;20985;-70
2023/03/10 08:45:09;;;;;;;12.20;3.65;;;;;;;8.89;100.00;98568.03;5073234;28;20136;-70
2023/03/10 08:47:35;;;;;;;16.83;4.85;;;;;;;8.88;100.00;98561.13;5072361;28;20036;-70
2023/03/10 08:50:01;;;;;;;7.90;2.85;;;;;;;8.90;100.00;98552.91;5072921;28;20031;-70
2023/03/10 08:52:26;;;;;;;18.02;3.80;;;;;;;8.83;100.00;98550.41;5073197;28;20028;-70
2023/03/10 08:54:52;;;;;;;10.60;3.17;;;;;;;8.86;100.00;98559.75;5072603;28;20034;-70
2023/03/10 08:57:17;;;;;;;9.23;2.72;;;;;;;8.82;100.00;98556.75;5073423;28;20059;-70
2023/03/10 08:59:42;;;;;;;9.13;3.45;;;;;;;8.80;100.00;98566.03;5072379;28;20123;-70
2023/03/10 09:02:13;;;;;;;12.98;3.30;;;;;;;8.76;100.00;98563.84;5072067;28;20024;-70
2023/03/10 09:04:38;;;;;;;11.98;3.58;;;;;;;8.87;100.00;98562.16;5072559;28;20622;-70
2023/03/10 09:07:04;;;;;;;8.23;3.08;;;;;;;9.02;100.00;98556.28;5072081;28;20028;-70
2023/03/10 09:09:29;;;;;;;7.82;3.10;;;;;;;9.31;100.00;98554.31;5071977;28;20043;-72
2023/03/10 09:11:55;;;;;;;11.05;3.35;;;;;;;9.53;100.00;98542.88;5075355;28;20028;-69
2023/03/10 09:14:20;;;;;;;9.23;3.65;;;;;;;9.70;100.00;98553.47;5076150;28;20032;-70
2023/03/10 09:16:45;;;;;;;12.15;3.88;;;;;;;9.80;100.00;98554.41;5076516;28;20032;-69
2023/03/10 09:19:11;;;;;;;11.23;2.92;;;;;;;9.77;100.00;98544.25;5076764;28;20135;-71
2023/03/10 09:21:36;;;;;;;9.32;2.47;;;;;;;9.69;100.00;98551.84;5074903;28;20028;-69
2023/03/10 09:24:02;;;;;;;11.65;3.95;;;;;;;9.53;100.00;98551.66;5075967;28;20039;-69
2023/03/10 09:26:28;;;;;;;7.32;2.58;;;;;;;9.46;100.00;98553.72;5077539;28;20445;-69
2023/03/10 09:28:53;;;;;;;9.00;2.95;;;;;;;9.39;100.00;98553.88;5076568;28;20457;-70
2023/03/10 09:31:23;;;;;;;8.70;2.63;;;;;;;9.34;100.00;98555.66;5075625;28;20053;-69
2023/03/10 09:33:48;;;;;;;12.13;3.63;;;;;;;9.29;100.00;98561.72;5076517;28;20138;-70
2023/03/10 09:36:14;;;;;;;7.10;3.10;;;;;;;9.20;100.00;98539.25;5075972;28;20034;-70
2023/03/10 09:38:40;;;;;;;8.02;2.47;;;;;;;9.19;100.00;98557.03;5075597;28;20078;-70
2023/03/10 09:41:32;;;;;;;9.90;3.47;;;;;;;9.13;100.00;98557.22;5077130;28;20031;-70
2023/03/10 09:44:22;;;;;;;11.73;3.30;;;;;;;9.11;100.00;98546.03;5075898;28;20086;-70
2023/03/10 09:46:55;;;;;;;7.50;3.90;;;;;;;9.07;100.00;98540.41;5075670;28;20018;-71
2023/03/10 09:49:35;;;;;;;12.95;3.05;;;;;;;9.00;100.00;98537.09;5074769;28;20405;-70
2023/03/10 09:52:18;;;;;;;6.57;2.75;;;;;;;9.05;100.00;98544.34;5076544;28;20020;-70
2023/03/10 09:54:49;;;;;;;11.38;3.30;;;;;;;9.07;100.00;98552.91;5075698;28;20349;-70
2023/03/10 09:57:19;;;;;;;13.00;4.40;;;;;;;9.06;100.00;98549.41;5076070;28;20037;-71
2023/03/10 09:59:48;;;;;;;13.32;2.83;;;;;;;9.05;100.00;98553.13;5076089;28;20028;-70
2023/03/10 10:02:31;;;;;;;10.00;3.25;;;;;;;9.12;100.00;98559.09;5075544;28;20028;-69
2023/03/10 10:05:00;;;;;;;11.82;3.28;;;;;;;9.18;100.00;98555.44;5075698;28;20030;-70
2023/03/10 10:07:41;;;;;;;9.18;3.70;;;;;;;9.28;100.00;98559.31;5075514;28;20487;-70
2023/03/10 10:10:14;;;;;;;13.13;3.53;;;;;;;9.28;100.00;98559.31;5073715;28;20029;-71
2023/03/10 10:12:42;;;;;;;13.35;4.50;;;;;;;9.26;100.00;98562.22;5072645;28;20035;-71
2023/03/10 10:15:23;;;;;;;10.63;3.45;;;;;;;9.10;100.00;98561.19;5072606;28;20024;-66
2023/03/10 10:18:13;;;;;;;8.70;3.97;;;;;;;9.12;100.00;98571.59;5072564;28;20025;-66
2023/03/10 10:20:58;;;;;;;8.88;3.75;;;;;;;9.16;100.00;98581.47;5071622;28;20108;-67
2023/03/10 10:23:36;;;;;;;5.40;2.92;;;;;;;9.29;100.00;98577.69;5072200;28;20036;-67
2023/03/10 10:26:19;;;;;;;6.60;3.03;;;;;;;9.47;100.00;98578.47;5081010;28;20024;-67
2023/03/10 10:28:49;;;;;;;8.40;2.65;;;;;;;9.50;100.00;98583.28;5072189;28;20025;-66
2023/03/10 10:31:21;;;;;;;8.13;2.70;;;;;;;9.58;100.00;98581.00;5072246;28;20025;-66
2023/03/10 10:34:00;;;;;;;;;;;;;;;9.72;100.00;98589.44;5072811;28;20032;-67
2023/03/10 10:36:29;;;;;;;9.68;3.83;;;;;;;9.80;100.00;98580.22;5072344;28;20283;-67
2023/03/10 10:38:56;;;;;;;6.32;2.30;;;;;;;9.81;100.00;98581.81;5072328;28;20032;-67
2023/03/10 10:41:27;;;;;;;7.72;2.88;;;;;;;9.71;100.00;98587.03;5072109;28;20036;-67
2023/03/10 10:43:56;;;;;;;10.43;3.75;;;;;;;9.61;100.00;98590.34;5072134;28;20033;-67
2023/03/10 10:46:25;;;;;;;8.82;2.25;;;;;;;9.51;100.00;98591.03;5072320;28;20020;-67
2023/03/10 10:49:18;;;;;;;10.88;2.20;;;;;;;9.37;100.00;98590.56;5071487;28;20039;-66
2023/03/10 10:51:56;;;;;;;9.07;3.45;;;;;;;9.21;100.00;98591.38;5090979;28;20031;-67
2023/03/10 10:54:42;;;;;;;6.75;1.85;;;;;;;9.12;100.00;98582.22;5091413;28;20034;-66
2023/03/10 10:57:20;;;;;;;7.85;1.42;;;;;;;9.09;100.00;98585.34;5091025;28;20027;-66
2023/03/10 10:59:46;;;;;;;12.10;2.00;;;;;;;9.08;100.00;98581.88;5090981;28;20537;-67
2023/03/10 11:02:23;;;;;;;10.35;2.33;;;;;;;9.10;100.00;98579.00;5090957;28;20028;-66
2023/03/10 11:04:49;;;;;;;5.40;1.98;;;;;;;9.11;100.00;98576.06;5081541;28;20056;-66
2023/03/10 11:07:32;;;;;;;3.70;1.35;;;;;;;9.21;100.00;98578.91;5071525;28;20090;-66
2023/03/10 11:09:57;;;;;;;6.55;1.83;;;;;;;9.25;100.00;98575.75;5071506;28;20066;-66
2023/03/10 11:12:23;;;;;;;8.02;2.17;;;;;;;9.31;100.00;98578.25;5071428;28;20020;-66
2023/03/10 11:14:54;;;;;;;5.40;2.42;;;;;;;9.42;100.00;98576.53;5071529;28;20527;-66
2023/03/10 11:17:32;;;;;;;10.30;3.03;;;;;;;9.54;100.00;98573.78;5071508;28;20102;-66
2023/03/10 11:20:35;;;;;;;5.65;2.10;;;;;;;9.62;100.00;98568.03;5090425;28;20386;-66
2023/03/10 11:23:19;;;;;;;5.55;2.53;;;;;;;9.72;100.00;98556.69;5090544;28;20519;-67
2023/03/10 11:25:47;;;;;;;6.30;2.38;;;;;;;9.75;100.00;98558.88;5090170;28;20098;-67
2023/03/10 11:28:37;;;;;;;7.80;2.55;;;;;;;9.84;100.00;98555.50;5090545;28;20095;-66
2023/03/10 11:31:21;;;;;;;6.28;2.63;;;;;;;9.81;100.00;98549.88;5090445;28;20031;-66